KPDX/PDX METAR and TAF weather

Enter ICAO airport designator
Station Type Date Time Source
KPDX METAR 2021/07/24 19:53 UTC NOAA

KPDX 241953Z 32007KT 10SM CLR 28/13 A3008 RMK AO2 SLP186 T02780133


Station Type Date Time Source
KPDX Decoded METAR 2021/07/24 19:53 UTC NOAA

PORTLAND INTERNATIONAL AIRPORT, OR, United States (KPDX) 45-35N 122-36W 7M
Jul 24, 2021 - 03:53 PM EDT / 2021.07.24 1953 UTC
Wind: from the NW (320 degrees) at 8 MPH (7 KT):0
Visibility: 10 mile(s):0
Sky conditions: clear
Temperature: 82.0 F (27.8 C)
Dew Point: 55.9 F (13.3 C)
Relative Humidity: 40%
Pressure (altimeter): 30.08 in. Hg (1018 hPa)
ob: KPDX 241953Z 32007KT 10SM CLR 28/13 A3008 RMK AO2 SLP186 T02780133
cycle: 20

Station Type Date Time Source
KPDX TAF 2021/07/24 18:27 UTC NOAA

TAF KPDX 241723Z 2418/2518 31006KT P6SM SKC
FM242000 31010KT P6SM SKC
FM242300 32012G20KT P6SM SKC
FM250400 32010KT P6SM SKC
FM250700 32005KT P6SM SKC

Example: see airport list